Aérodrome :
LOGIN :

S'inscrire | Disclaimer

   EN    FR    IT 

 










Légende :    VFR   VFR Marginal   IFR   IFR Intensif   IFR Très Intensif
Visi : 
Plafond : 
>= 8 km
>= 3000ft
5 à 8 km
1000 à 3000 ft
1500m à 5 km
500 à 1000 ft
800 à 1500m
200 à 500 ft
< 800m
< 200 ft
Symboles :   Orages  Brouillard  Fortes neiges  Fortes précipitations  Vent > 20 kt
SIGMETs :   Divers  Orages  Givrage  Turbulence  Onde Orograph.  Cendres Volcan.






- Altitude de l'aérodrome : 256 ft
- Code IATA : KUN


EYKA - Kaunas

DERNIER METAR :
  • 241450Z 25014KT 6000 OVC006 04/03 Q1011 R08/290095

METARs EXPIRÉS :
  • 241420Z 25014KT 6000 OVC006 04/03 Q1011 R08/290095
  • 241350Z 25014KT 4800 -RA BR OVC006 04/03 Q1011 R08/290095
  • 241320Z 25014KT 5000 -DZ BR OVC007 04/03 Q1011 R08/290095
  • 241250Z 25015KT 6000 -DZ OVC006 04/03 Q1011 R08/290095
  • 241220Z 25015KT 5000 -DZ BR OVC006 04/03 Q1011 R08/290095

TAF TAF EYKA
Valide du 24 à 12h jusqu'au 25 à 12h UTC


241100Z 2412/2512 25016G26KT 5000 BR OVC007
TEMPO 2412/2414 RA
TEMPO 2414/2418 2000 RA OVC004
TEMPO 2418/2422 3000 RA OVC005
TEMPO 2422/2504 1500 RA OVC003



MET'MAP, la Météo Aéronautique d'un coup d'oeil ! - Copyright ORBIFLY Décembre 2007 - Disclaimer

ORBIFLY MET'MAP TEAM :

Programmation & Développement : Alexandra Zaïnal
Sur une idée originale de : Baudouin d'Aumeries
Assistance à la programmation : Marc-Olivier Méhu
Soutien technique & logistique : Manuel Goepfert

Contact : metmap@orbifly.com




SOURCES & CREDITS :

   NOAA